Time;durP1;ratioP1;P1;durP2;ratioP2;P2;SDS_P1;SDS_P2;PMS_P1;PMS_P2;Temp;Humidity;BMP_temperature;BMP_pressure;BME280_temperature;BME280_humidity;BME280_pressure;Samples;Min_cycle;Max_cycle;Signal;HPM_P1;HPM_P2
2023/06/23 00:00:13;;;;;;;;;;;19.70;65.80;;;16.08;100.00;95864.47;4949416;28;20289;-47
2023/06/23 00:02:42;;;;;;;;;;;19.70;65.90;;;16.01;100.00;95872.09;4950562;28;19910;-46
2023/06/23 00:05:09;;;;;;;;;;;19.60;65.80;;;15.96;100.00;95878.34;4943531;28;20013;-46
2023/06/23 00:07:35;;;;;;;;;;;19.60;66.70;;;15.93;100.00;95886.19;4948125;28;19922;-46
2023/06/23 00:10:05;;;;;;;;;;;19.60;65.90;;;15.90;100.00;95881.41;4948931;28;20013;-45
2023/06/23 00:12:35;;;;;;;;;;;19.50;66.00;;;15.92;100.00;95882.72;4949601;28;20026;-46
2023/06/23 00:15:07;;;;;;;;;;;19.50;66.00;;;15.88;100.00;95891.63;4948068;28;19910;-46
2023/06/23 00:17:33;;;;;;;;;;;19.50;66.10;;;15.83;100.00;95895.19;4948953;28;20480;-47
2023/06/23 00:19:59;;;;;;;;;;;19.50;66.30;;;15.77;100.00;95898.25;4945546;28;19910;-48
2023/06/23 00:22:27;;;;;;;;;;;19.40;66.60;;;15.71;100.00;95898.31;4952724;28;20392;-46
2023/06/23 00:24:54;;;;;;;;;;;19.50;66.70;;;15.72;100.00;95896.41;4944179;28;20428;-50
2023/06/23 00:27:19;;;;;;;;;;;19.40;67.60;;;15.69;100.00;95891.63;4952784;28;20395;-45
2023/06/23 00:29:46;;;;;;;;;;;19.40;66.90;;;15.69;100.00;95894.31;4945187;28;19910;-47
2023/06/23 00:32:12;;;;;;;;;;;19.40;66.80;;;15.69;100.00;95880.88;4949889;28;19918;-46
2023/06/23 00:34:37;;;;;;;;;;;19.30;66.70;;;15.66;100.00;95874.16;4946552;28;20377;-48
2023/06/23 00:37:04;;;;;;;;;;;19.30;66.70;;;15.66;100.00;95876.84;4937135;28;19957;-47
2023/06/23 00:39:30;;;;;;;;;;;19.30;66.70;;;15.65;100.00;95871.78;4955026;28;20340;-47
2023/06/23 00:42:01;;;;;;;;;;;19.30;66.70;;;15.64;100.00;95865.63;4942401;28;19922;-46
2023/06/23 00:44:26;;;;;;;;;;;19.30;66.70;;;15.63;100.00;95873.94;4954269;28;19968;-48
2023/06/23 00:46:53;;;;;;;;;;;19.30;66.70;;;15.63;100.00;95868.56;4941923;28;19921;-46
2023/06/23 00:49:19;;;;;;;;;;;19.30;66.70;;;15.64;100.00;95867.50;4953991;28;20292;-46
2023/06/23 00:51:46;;;;;;;;;;;19.30;66.70;;;15.63;100.00;95869.38;4954813;28;19920;-48
2023/06/23 00:54:12;;;;;;;;;;;19.30;66.80;;;15.65;100.00;95875.25;4944160;28;20005;-47
2023/06/23 00:56:39;;;;;;;;;;;19.30;66.80;;;15.69;100.00;95875.50;4965263;28;19949;-46
2023/06/23 00:59:05;;;;;;;;;;;19.30;66.80;;;15.67;100.00;95867.75;4969637;28;19926;-46
2023/06/23 01:01:33;;;;;;;;;;;19.30;66.80;;;15.67;100.00;95878.50;4947514;28;19986;-46
2023/06/23 01:04:00;;;;;;;;;;;19.40;66.90;;;15.70;100.00;95879.81;4947924;28;20284;-49
2023/06/23 01:07:13;;;;;;;;;;;19.30;66.80;;;15.74;100.00;95878.13;4947901;28;19918;-46
2023/06/23 01:09:54;;;;;;;;;;;19.40;66.90;;;15.71;100.00;95876.03;4963821;28;20009;-45
2023/06/23 01:12:56;;;;;;;;;;;19.40;66.90;;;15.64;100.00;95879.03;4954548;28;19999;-46
2023/06/23 01:15:41;;;;;;;;;;;19.40;67.00;;;15.69;100.00;95886.25;4948075;28;19940;-46
2023/06/23 01:18:54;;;;;;;;;;;19.40;67.10;;;15.73;100.00;95885.41;4966816;28;19910;-47
2023/06/23 01:21:44;;;;;;;;;;;19.40;67.10;;;15.73;100.00;95893.44;4951454;28;19989;-47
2023/06/23 01:24:47;;;;;;;;;;;19.40;67.10;;;15.76;100.00;95886.69;4946099;28;19942;-46
2023/06/23 01:27:18;;;;;;;;;;;19.40;67.20;;;15.78;100.00;95889.88;4954049;28;19922;-47
2023/06/23 01:29:50;;;;;;;;;;;19.40;67.20;;;15.77;100.00;95885.63;4941389;28;19995;-47
2023/06/23 01:32:28;;;;;;;;;;;19.40;67.20;;;15.76;100.00;95893.94;4953497;28;19917;-45
2023/06/23 01:35:03;;;;;;;;;;;19.40;67.20;;;15.78;100.00;95889.09;4965635;28;20363;-47
2023/06/23 01:37:37;;;;;;;;;;;19.40;68.00;;;15.80;100.00;95886.94;4967468;28;19954;-46
2023/06/23 01:40:14;;;;;;;;;;;19.40;67.20;;;15.79;100.00;95890.69;4969122;28;20037;-47
2023/06/23 01:42:56;;;;;;;;;;;19.50;67.20;;;15.75;100.00;95893.16;4968814;28;19996;-46
2023/06/23 01:45:27;;;;;;;;;;;19.50;67.30;;;15.76;100.00;95896.63;4947028;28;19914;-48
2023/06/23 01:47:58;;;;;;;;;;;19.40;67.30;;;15.79;100.00;95893.38;4942620;28;20008;-48
2023/06/23 01:50:24;;;;;;;;;;;19.40;67.30;;;15.77;100.00;95896.34;4939921;28;20005;-47
2023/06/23 01:52:53;;;;;;;;;;;19.40;67.30;;;15.79;100.00;95896.84;4953292;28;20009;-52
2023/06/23 01:55:20;;;;;;;;;;;19.40;67.40;;;15.78;100.00;95903.31;4947490;28;19961;-51
2023/06/23 01:57:50;;;;;;;;;;;19.40;67.40;;;15.78;100.00;95905.22;4968788;28;19909;-45
2023/06/23 02:00:22;;;;;;;;;;;19.40;67.50;;;15.69;100.00;95897.78;4967368;28;19917;-47
2023/06/23 02:02:52;;;;;;;;;;;19.40;67.50;;;15.65;100.00;95902.13;4948063;28;20391;-48
2023/06/23 02:05:25;;;;;;;;;;;19.40;67.60;;;15.61;100.00;95909.16;4967802;28;19961;-46
2023/06/23 02:07:53;;;;;;;;;;;19.30;67.70;;;15.58;100.00;95908.94;4962449;28;19914;-45
2023/06/23 02:10:24;;;;;;;;;;;19.30;67.80;;;15.56;100.00;95913.78;4943984;28;20293;-46
2023/06/23 02:12:53;;;;;;;;;;;19.30;68.00;;;15.55;100.00;95913.00;4949615;29;19957;-47
2023/06/23 02:15:22;;;;;;;;;;;19.30;68.20;;;15.57;100.00;95918.06;4947744;28;19968;-49
2023/06/23 02:17:52;;;;;;;;;;;19.30;68.30;;;15.50;100.00;95910.34;4945743;28;19910;-49
2023/06/23 02:20:23;;;;;;;;;;;19.20;68.30;;;15.49;100.00;95914.13;4955961;28;19917;-48
2023/06/23 02:22:52;;;;;;;;;;;19.20;68.40;;;15.47;100.00;95922.47;4951266;28;19941;-49
2023/06/23 02:25:20;;;;;;;;;;;19.20;68.60;;;15.45;100.00;95913.91;4948942;28;19910;-46
2023/06/23 02:27:47;;;;;;;;;;;19.20;68.70;;;15.48;100.00;95928.63;4967068;28;19915;-48
2023/06/23 02:30:17;;;;;;;;;;;19.10;68.80;;;15.38;100.00;95923.38;4951210;28;20380;-46
2023/06/23 02:32:45;;;;;;;;;;;19.20;69.10;;;15.45;100.00;95921.97;4952817;28;19914;-48
2023/06/23 02:35:14;;;;;;;;;;;19.10;69.00;;;15.45;100.00;95923.88;4954787;28;20335;-48
2023/06/23 02:37:48;;;;;;;;;;;19.10;69.00;;;15.40;100.00;95932.75;4944312;28;19917;-47
2023/06/23 02:40:19;;;;;;;;;;;19.10;69.00;;;15.37;100.00;95927.16;4970590;28;19910;-48
2023/06/23 02:43:15;;;;;;;;;;;19.10;69.80;;;15.32;100.00;95948.69;4971849;28;20395;-48
2023/06/23 02:45:49;;;;;;;;;;;19.10;69.20;;;15.37;100.00;95978.97;4945232;28;19910;-49
2023/06/23 02:48:30;;;;;;;;;;;19.10;69.20;;;15.27;100.00;95982.56;4969514;28;19917;-46
2023/06/23 02:51:01;;;;;;;;;;;19.10;69.10;;;15.22;100.00;95968.38;4952845;28;19921;-48
2023/06/23 02:53:34;;;;;;;;;;;19.00;68.90;;;15.16;100.00;95969.50;4972030;28;19910;-46
2023/06/23 02:56:07;;;;;;;;;;;19.00;68.80;;;15.08;100.00;95973.63;4964557;28;19909;-47
2023/06/23 02:58:36;;;;;;;;;;;18.90;68.70;;;15.00;100.00;95974.22;4971671;28;19910;-47
2023/06/23 03:01:04;;;;;;;;;;;18.90;69.40;;;14.97;100.00;95972.91;4954820;28;19914;-45
2023/06/23 03:03:34;;;;;;;;;;;18.80;68.60;;;14.93;100.00;95985.28;4956961;28;20408;-46
2023/06/23 03:06:00;;;;;;;;;;;18.80;68.70;;;14.89;100.00;95986.16;4960739;28;19914;-45
2023/06/23 03:08:26;;;;;;;;;;;18.70;68.70;;;14.88;100.00;95993.38;4948192;28;19918;-45
2023/06/23 03:10:54;;;;;;;;;;;18.70;68.80;;;14.90;100.00;95993.09;4953635;28;19913;-45
2023/06/23 03:13:20;;;;;;;;;;;18.70;68.90;;;14.87;100.00;96007.88;4955796;28;19957;-45
2023/06/23 03:15:52;;;;;;;;;;;18.70;68.90;;;14.86;100.00;96008.97;4938990;28;19953;-45
2023/06/23 03:18:24;;;;;;;;;;;18.70;69.00;;;14.85;100.00;96009.22;4948468;28;20369;-44
2023/06/23 03:20:52;;;;;;;;;;;18.70;69.00;;;14.83;100.00;96022.13;4949667;28;19910;-46
2023/06/23 03:23:21;;;;;;;;;;;18.70;69.10;;;14.83;100.00;96032.88;4949221;28;20318;-45
2023/06/23 03:25:48;;;;;;;;;;;18.70;69.10;;;14.85;100.00;96026.13;4947625;28;19911;-47
2023/06/23 03:28:25;;;;;;;;;;;18.60;69.10;;;14.87;100.00;96034.69;4949556;28;19910;-46
2023/06/23 03:31:12;;;;;;;;;;;18.60;69.20;;;14.87;100.00;96029.34;4956405;28;19936;-45
2023/06/23 03:33:44;;;;;;;;;;;18.70;69.30;;;14.89;100.00;96037.91;4951243;28;19910;-45
2023/06/23 03:36:24;;;;;;;;;;;18.70;70.10;;;14.91;100.00;96030.34;4948253;28;19910;-45
2023/06/23 03:39:01;;;;;;;;;;;18.70;69.40;;;14.95;100.00;96044.84;4954236;28;19924;-45
2023/06/23 03:41:30;;;;;;;;;;;18.70;69.40;;;14.95;100.00;96039.47;4955188;28;19964;-45
2023/06/23 03:44:12;;;;;;;;;;;18.70;69.40;;;14.97;100.00;96048.00;4964225;28;20301;-46
2023/06/23 03:47:03;;;;;;;;;;;18.70;69.50;;;15.04;100.00;96061.09;4954614;28;19914;-45
2023/06/23 03:49:37;;;;;;;;;;;18.80;69.60;;;15.08;100.00;96069.41;4954006;28;19910;-45
2023/06/23 03:52:07;;;;;;;;;;;18.80;69.70;;;15.10;100.00;96076.06;4956200;28;19969;-46
2023/06/23 03:54:37;;;;;;;;;;;18.80;69.70;;;15.14;100.00;96074.47;4957929;28;20000;-46
2023/06/23 03:57:07;;;;;;;;;;;18.90;69.80;;;15.14;100.00;96079.03;4948597;28;19914;-45
2023/06/23 03:59:39;;;;;;;;;;;18.90;69.90;;;15.17;100.00;96081.16;4953646;28;20341;-45
2023/06/23 04:02:09;;;;;;;;;;;18.90;69.90;;;15.22;100.00;96081.09;4953931;28;19910;-46
2023/06/23 04:04:39;;;;;;;;;;;19.00;69.90;;;15.22;100.00;96095.31;4954732;28;19916;-46
2023/06/23 04:07:09;;;;;;;;;;;19.00;69.90;;;15.21;100.00;96100.97;4953742;28;19964;-46
2023/06/23 04:09:40;;;;;;;;;;;19.00;69.90;;;15.25;100.00;96102.78;4936609;28;19911;-46
2023/06/23 04:12:12;;;;;;;;;;;19.10;69.90;;;15.17;100.00;96107.97;4952348;28;20286;-45
2023/06/23 04:14:41;;;;;;;;;;;19.10;70.00;;;15.24;100.00;96113.81;4945061;28;19965;-45
2023/06/23 04:17:11;;;;;;;;;;;19.10;70.70;;;15.28;100.00;96110.28;4951982;28;19925;-48
2023/06/23 04:19:41;;;;;;;;;;;19.10;69.90;;;15.30;100.00;96114.59;4953526;28;20268;-47
2023/06/23 04:22:09;;;;;;;;;;;19.10;69.80;;;15.29;100.00;96124.50;4953982;28;19921;-46
2023/06/23 04:24:39;;;;;;;;;;;19.20;69.90;;;15.31;100.00;96121.53;4955640;28;20365;-50
2023/06/23 04:27:07;;;;;;;;;;;19.20;69.90;;;15.30;100.00;96130.69;4952667;28;19914;-48
2023/06/23 04:29:38;;;;;;;;;;;19.20;69.90;;;15.39;100.00;96129.00;4955737;28;19913;-47
2023/06/23 04:32:04;;;;;;;;;;;19.20;69.90;;;15.39;100.00;96134.38;4962611;28;19976;-46
2023/06/23 04:34:30;;;;;;;;;;;19.30;70.00;;;15.39;100.00;96143.22;4955219;28;19910;-48
2023/06/23 04:37:23;;;;;;;;;;;19.20;69.80;;;15.40;100.00;96144.81;4952709;28;19968;-46
2023/06/23 04:40:07;;;;;;;;;;;19.30;69.90;;;15.46;100.00;96156.31;4971793;23;19926;-49
2023/06/23 04:42:59;;;;;;;;;;;19.30;69.90;;;15.45;100.00;96155.53;4956674;28;20067;-48
2023/06/23 04:45:30;;;;;;;;;;;19.30;69.80;;;15.49;100.00;96167.28;4971318;28;20381;-49
2023/06/23 04:48:02;;;;;;;;;;;19.40;69.90;;;15.53;100.00;96167.53;4965305;28;19971;-51
2023/06/23 04:50:33;;;;;;;;;;;19.40;69.80;;;15.54;100.00;96157.56;4988112;28;19910;-47
2023/06/23 04:53:18;;;;;;;;;;;19.50;69.80;;;15.56;100.00;96169.66;4989078;28;19910;-49
2023/06/23 04:55:50;;;;;;;;;;;19.50;69.70;;;15.60;100.00;96176.03;4974954;28;19953;-50
2023/06/23 04:58:20;;;;;;;;;;;19.60;69.60;;;15.61;100.00;96184.94;4970922;28;19921;-49
2023/06/23 05:00:49;;;;;;;;;;;19.70;69.50;;;15.64;100.00;96187.84;4963784;28;20295;-52
2023/06/23 05:03:18;;;;;;;;;;;19.70;69.40;;;15.69;100.00;96184.34;4985543;28;19910;-47
2023/06/23 05:05:49;;;;;;;;;;;19.70;69.50;;;15.65;100.00;96186.75;4979193;28;19917;-50
2023/06/23 05:08:16;;;;;;;;;;;19.70;69.40;;;15.66;100.00;96190.22;4963264;28;19933;-47
2023/06/23 05:10:46;;;;;;;;;;;19.80;69.50;;;15.70;100.00;96192.13;4965412;28;19909;-54
2023/06/23 05:13:17;;;;;;;;;;;19.80;69.40;;;15.73;100.00;96190.72;4961909;28;20009;-49
2023/06/23 05:15:48;;;;;;;;;;;19.80;69.40;;;15.72;100.00;96195.31;4988606;28;20315;-51
2023/06/23 05:18:17;;;;;;;;;;;19.80;69.40;;;15.71;100.00;96192.91;4988272;28;19916;-50
2023/06/23 05:20:46;;;;;;;;;;;19.80;69.40;;;15.69;100.00;96187.81;4960328;28;19910;-51
2023/06/23 05:23:17;;;;;;;;;;;19.80;69.40;;;15.77;100.00;96193.69;4975943;28;20442;-49
2023/06/23 05:25:48;;;;;;;;;;;19.90;69.30;;;15.75;100.00;96198.53;4971928;28;19997;-49
2023/06/23 05:28:19;;;;;;;;;;;20.00;69.30;;;15.81;100.00;96195.50;4971378;28;19917;-50
2023/06/23 05:30:47;;;;;;;;;;;20.00;69.20;;;15.86;100.00;96198.16;4960474;28;20281;-48
2023/06/23 05:33:17;;;;;;;;;;;20.10;69.10;;;15.86;100.00;96198.16;4987765;28;19916;-50
2023/06/23 05:35:45;;;;;;;;;;;20.10;69.00;;;15.94;100.00;96207.47;4960553;28;19910;-47
2023/06/23 05:38:13;;;;;;;;;;;20.20;69.00;;;16.00;100.00;96209.03;4960858;28;19911;-47
2023/06/23 05:40:39;;;;;;;;;;;20.30;69.00;;;16.08;100.00;96210.31;4963638;28;19924;-53
2023/06/23 05:43:06;;;;;;;;;;;20.40;68.90;;;16.19;100.00;96211.78;4985788;28;19941;-52
2023/06/23 05:45:32;;;;;;;;;;;20.50;68.80;;;16.27;100.00;96207.69;4971852;28;19971;-47
2023/06/23 05:48:01;;;;;;;;;;;20.70;68.70;;;16.38;100.00;96203.78;4985538;28;19913;-49
2023/06/23 05:50:34;;;;;;;;;;;20.80;68.60;;;16.51;100.00;96208.47;4963855;28;19909;-49
2023/06/23 05:53:11;;;;;;;;;;;21.00;68.40;;;16.71;100.00;96201.28;4966673;28;20377;-54
2023/06/23 05:56:10;;;;;;;;;;;21.30;69.00;;;16.91;100.00;96197.53;4975073;28;19925;-48
2023/06/23 05:58:44;;;;;;;;;;;21.50;68.00;;;17.07;100.00;96198.94;4961985;28;20296;-48
2023/06/23 06:01:16;;;;;;;;;;;21.80;67.90;;;17.16;100.00;96207.16;4952227;28;19910;-50
2023/06/23 06:04:05;;;;;;;;;;;22.00;68.40;;;17.30;100.00;96203.44;4971519;28;20436;-50
2023/06/23 06:06:36;;;;;;;;;;;22.20;67.50;;;17.38;100.00;96209.25;4987146;28;19936;-53
2023/06/23 06:09:07;;;;;;;;;;;22.30;67.20;;;17.48;100.00;96206.41;4967633;28;20412;-48
2023/06/23 06:11:37;;;;;;;;;;;22.40;66.90;;;17.51;100.00;96201.22;4972271;28;19910;-55
2023/06/23 06:14:07;;;;;;;;;;;22.50;66.70;;;17.57;100.00;96205.44;4978137;28;19941;-53
2023/06/23 06:16:36;;;;;;;;;;;22.60;67.30;;;17.52;100.00;96205.53;4964554;28;20373;-48
2023/06/23 06:19:03;;;;;;;;;;;22.70;66.20;;;17.68;100.00;96214.16;4949860;28;20000;-51
2023/06/23 06:21:33;;;;;;;;;;;22.80;66.00;;;17.80;100.00;96219.94;4969108;28;19980;-55
2023/06/23 06:24:00;;;;;;;;;;;22.90;65.80;;;18.00;100.00;96215.28;4983921;28;19930;-48
2023/06/23 06:26:26;;;;;;;;;;;23.00;65.70;;;18.06;100.00;96211.41;4969396;28;19956;-49
2023/06/23 06:28:56;;;;;;;;;;;23.10;65.60;;;18.12;100.00;96212.91;4968558;28;19909;-48
2023/06/23 06:31:24;;;;;;;;;;;23.10;65.50;;;18.13;100.00;96216.41;4954364;28;19921;-48
2023/06/23 06:33:53;;;;;;;;;;;23.20;65.50;;;18.25;100.00;96230.22;4966839;28;19956;-50
2023/06/23 06:36:22;;;;;;;;;;;23.30;65.20;;;18.12;99.36;96233.69;4965309;28;19944;-51
2023/06/23 06:38:51;;;;;;;;;;;23.40;65.10;;;18.14;99.62;96229.56;4970610;28;19918;-51
2023/06/23 06:41:19;;;;;;;;;;;23.40;64.90;;;18.31;100.00;96228.22;4970741;28;20322;-51
2023/06/23 06:43:44;;;;;;;;;;;23.40;65.70;;;18.31;100.00;96234.41;4983063;28;20012;-48
2023/06/23 06:46:12;;;;;;;;;;;23.40;65.00;;;18.40;99.43;96243.41;4958385;28;20036;-50
2023/06/23 06:48:39;;;;;;;;;;;23.40;65.00;;;18.44;99.82;96230.13;4955011;28;19936;-48
2023/06/23 06:51:07;;;;;;;;;;;23.40;64.90;;;18.45;97.71;96229.81;4979114;28;19910;-48
2023/06/23 06:53:33;;;;;;;;;;;23.50;64.70;;;18.40;96.56;96224.53;4972071;28;19916;-47
2023/06/23 06:56:00;;;;;;;;;;;23.60;64.40;;;18.57;96.55;96232.03;4986158;28;19914;-52
2023/06/23 06:58:26;;;;;;;;;;;23.70;64.30;;;18.68;94.35;96232.63;4970376;28;19914;-50
2023/06/23 07:00:58;;;;;;;;;;;24.00;64.70;;;19.01;94.69;96230.63;4972276;28;19918;-52
2023/06/23 07:03:26;;;;;;;;;;;24.30;63.80;;;19.34;93.29;96225.06;4960393;28;19917;-50
2023/06/23 07:05:51;;;;;;;;;;;24.70;63.60;;;19.58;91.81;96233.66;4990596;28;20285;-49
2023/06/23 07:08:17;;;;;;;;;;;25.00;63.20;;;19.70;88.51;96232.34;4973851;28;19933;-50
2023/06/23 07:10:43;;;;;;;;;;;25.20;62.90;;;19.58;87.23;96233.66;4976066;28;19910;-52
2023/06/23 07:13:09;;;;;;;;;;;25.40;62.30;;;19.46;86.72;96222.63;4973651;28;19964;-48
2023/06/23 07:15:34;;;;;;;;;;;25.40;61.60;;;19.64;87.28;96229.78;4964907;28;19917;-50
2023/06/23 07:18:00;;;;;;;;;;;25.50;61.40;;;19.80;84.79;96227.50;4959347;28;19909;-55
2023/06/23 07:20:26;;;;;;;;;;;25.50;61.20;;;19.72;86.25;96235.56;4974596;28;19914;-48
2023/06/23 07:22:52;;;;;;;;;;;25.60;60.70;;;20.00;82.46;96237.03;4989930;28;20369;-48
2023/06/23 07:25:17;;;;;;;;;;;25.90;60.50;;;20.18;80.74;96242.53;4974155;28;19917;-50
2023/06/23 07:27:44;;;;;;;;;;;26.30;60.10;;;20.49;80.35;96243.31;4971241;28;20062;-53
2023/06/23 07:30:10;;;;;;;;;;;26.70;59.60;;;20.51;78.51;96238.44;4975364;28;19910;-49
2023/06/23 07:32:36;;;;;;;;;;;27.00;58.80;;;20.54;76.77;96245.91;4970482;28;20009;-48
2023/06/23 07:35:03;;;;;;;;;;;27.20;58.30;;;20.63;77.24;96247.88;4965373;28;20012;-51
2023/06/23 07:37:28;;;;;;;;;;;27.30;57.70;;;20.56;77.53;96249.13;4970576;28;19917;-50
2023/06/23 07:39:54;;;;;;;;;;;27.20;57.30;;;20.67;74.71;96255.03;4964912;28;19917;-51
2023/06/23 07:42:20;;;;;;;;;;;27.40;57.20;;;20.95;76.30;96250.19;4961675;28;20008;-54
2023/06/23 07:44:45;;;;;;;;;;;27.50;56.90;;;20.99;73.18;96261.19;4967392;28;20400;-53
2023/06/23 07:47:12;;;;;;;;;;;27.70;56.70;;;20.92;73.10;96252.75;4963389;28;20004;-56
2023/06/23 07:49:38;;;;;;;;;;;27.60;56.30;;;21.01;76.00;96258.97;4973616;28;19941;-54
2023/06/23 07:52:04;;;;;;;;;;;27.70;55.80;;;21.27;71.96;96253.59;4974520;28;20388;-53
2023/06/23 07:54:31;;;;;;;;;;;27.80;55.80;;;21.18;72.08;96252.78;4961866;28;20000;-56
2023/06/23 07:56:59;;;;;;;;;;;27.90;55.40;;;21.16;72.05;96258.53;4973798;28;19910;-55
2023/06/23 07:59:25;;;;;;;;;;;28.10;54.90;;;21.31;71.71;96265.44;4976717;28;20018;-51
2023/06/23 08:01:52;;;;;;;;;;;28.20;54.70;;;21.23;72.88;96261.56;4966769;28;19914;-50
2023/06/23 08:04:18;;;;;;;;;;;28.20;54.30;;;21.19;71.82;96265.25;4962069;28;19909;-51
2023/06/23 08:06:44;;;;;;;;;;;28.10;54.20;;;21.18;72.67;96263.63;4961454;28;19920;-49
2023/06/23 08:09:10;;;;;;;;;;;28.00;54.00;;;21.42;73.04;96255.09;4975895;28;20460;-49
2023/06/23 08:11:36;;;;;;;;;;;27.90;54.10;;;21.53;70.92;96255.56;4968001;28;20009;-51
2023/06/23 08:14:02;;;;;;;;;;;28.00;54.00;;;21.60;70.98;96251.28;4961632;28;19910;-54
2023/06/23 08:16:28;;;;;;;;;;;28.10;53.70;;;21.63;68.84;96255.28;4961185;28;19910;-56
2023/06/23 08:18:54;;;;;;;;;;;28.30;53.20;;;21.96;68.22;96252.84;4953153;28;20365;-50
2023/06/23 08:21:20;;;;;;;;;;;28.50;52.90;;;22.12;63.95;96253.13;4962092;28;20428;-51
2023/06/23 08:23:46;;;;;;;;;;;28.70;52.80;;;22.22;68.05;96262.88;4957512;28;20009;-58
2023/06/23 08:26:12;;;;;;;;;;;28.90;52.00;;;22.67;63.82;96268.66;4958600;28;19914;-48
2023/06/23 08:28:38;;;;;;;;;;;29.20;52.00;;;23.04;60.84;96269.00;4962859;28;20041;-51
2023/06/23 08:31:04;;;;;;;;;;;29.50;51.60;;;23.17;59.02;96278.84;4964615;28;19910;-51
2023/06/23 08:33:33;;;;;;;;;;;29.80;51.20;;;23.47;61.51;96289.66;4958986;28;19910;-55
2023/06/23 08:35:59;;;;;;;;;;;30.00;50.60;;;23.73;58.62;96286.81;4960373;28;20249;-52
2023/06/23 08:38:25;;;;;;;;;;;30.30;50.50;;;23.73;59.98;96284.09;4960851;28;19918;-56
2023/06/23 08:40:53;;;;;;;;;;;30.40;50.10;;;24.17;57.16;96288.03;4963187;28;19910;-49
2023/06/23 08:43:25;;;;;;;;;;;30.70;50.00;;;24.37;56.89;96285.59;4957936;28;20644;-51
2023/06/23 08:45:59;;;;;;;;;;;31.00;49.70;;;24.68;58.72;96301.44;4971546;28;19914;-53
2023/06/23 08:48:30;;;;;;;;;;;31.30;49.40;;;24.66;53.17;96292.81;4973054;28;20008;-49
2023/06/23 08:50:59;;;;;;;;;;;31.80;49.00;;;23.89;56.19;96301.41;4972922;28;19913;-50
2023/06/23 08:53:26;;;;;;;;;;;31.90;47.70;;;24.07;57.43;96304.78;4973925;28;19949;-50
2023/06/23 08:55:53;;;;;;;;;;;32.00;47.10;;;24.21;56.29;96299.03;4974836;28;20395;-51
2023/06/23 08:58:24;;;;;;;;;;;31.90;46.90;;;24.05;54.29;96301.56;4973063;28;19952;-48
2023/06/23 09:00:53;;;;;;;;;;;31.80;46.70;;;24.18;55.31;96305.94;4973138;28;20319;-48
2023/06/23 09:03:24;;;;;;;;;;;31.90;46.50;;;24.70;56.93;96313.59;4972585;28;19997;-48
2023/06/23 09:05:50;;;;;;;;;;;32.10;46.50;;;24.86;56.03;96307.50;4973382;28;19917;-49
2023/06/23 09:08:16;;;;;;;;;;;32.40;46.10;;;25.28;54.08;96304.59;4986916;28;20372;-48
2023/06/23 09:10:43;;;;;;;;;;;32.90;45.90;;;25.17;51.93;96303.47;4960433;28;20372;-49
2023/06/23 09:13:27;;;;;;;;;;;33.10;45.30;;;24.99;50.21;96298.19;4972440;28;20265;-52
2023/06/23 09:15:54;;;;;;;;;;;33.10;44.90;;;24.44;52.56;96304.91;4967175;28;19909;-51
2023/06/23 09:18:21;;;;;;;;;;;32.90;44.50;;;24.51;54.16;96316.06;4987460;28;20048;-50
2023/06/23 09:20:50;;;;;;;;;;;32.70;44.60;;;24.52;53.89;96316.84;4972547;28;19916;-51
2023/06/23 09:23:22;;;;;;;;;;;32.40;44.60;;;24.32;53.42;96319.28;4972668;28;19914;-53
2023/06/23 09:25:54;;;;;;;;;;;32.20;44.80;;;24.38;56.31;96308.94;4972130;28;19909;-54
2023/06/23 09:28:26;;;;;;;;;;;32.10;44.60;;;24.63;57.62;96315.28;4972393;28;20519;-52
2023/06/23 09:30:55;;;;;;;;;;;32.30;44.70;;;24.46;56.35;96314.34;4972979;28;20365;-49
2023/06/23 09:33:22;;;;;;;;;;;32.20;44.70;;;24.55;54.57;96308.81;4966042;28;20008;-51
2023/06/23 09:35:56;;;;;;;;;;;32.30;44.70;;;24.80;55.80;96317.81;4962114;28;20276;-50
2023/06/23 09:38:25;;;;;;;;;;;32.40;44.50;;;24.98;52.76;96312.19;4963423;28;19918;-53
2023/06/23 09:41:17;;;;;;;;;;;32.50;44.30;;;24.80;52.87;96323.28;4970910;28;19914;-52
2023/06/23 09:43:50;;;;;;;;;;;32.30;44.40;;;24.48;52.22;96324.13;4958280;28;19910;-54
2023/06/23 09:46:22;;;;;;;;;;;32.10;44.40;;;24.23;51.88;96324.00;4965812;28;19918;-51
2023/06/23 09:48:50;;;;;;;;;;;31.70;44.30;;;24.18;53.41;96318.75;4952737;28;19914;-53
2023/06/23 09:51:20;;;;;;;;;;;31.40;44.20;;;24.05;52.28;96319.84;4963799;28;19953;-55
2023/06/23 09:53:48;;;;;;;;;;;31.20;44.30;;;23.82;53.75;96320.19;4967801;28;19936;-48
2023/06/23 09:56:22;;;;;;;;;;;31.10;44.20;;;23.74;54.81;96326.47;4971567;28;19949;-48
2023/06/23 09:58:49;;;;;;;;;;;31.00;44.10;;;23.89;53.21;96325.88;4972087;28;19916;-51
2023/06/23 10:01:18;;;;;;;;;;;31.00;44.10;;;23.94;53.76;96328.41;4971315;28;20093;-52
2023/06/23 10:03:49;;;;;;;;;;;31.00;44.10;;;23.94;53.83;96333.84;4972536;28;19963;-53
2023/06/23 10:06:36;;;;;;;;;;;31.00;44.00;;;24.00;54.14;96326.25;4972505;28;20379;-50
2023/06/23 10:09:10;;;;;;;;;;;31.10;44.00;;;23.88;53.96;96329.75;4971053;28;19909;-52
2023/06/23 10:11:39;;;;;;;;;;;31.20;43.90;;;23.88;55.45;96335.19;4987286;28;19913;-48
2023/06/23 10:14:10;;;;;;;;;;;31.30;43.80;;;24.47;53.38;96326.03;4971532;28;20001;-51
2023/06/23 10:16:46;;;;;;;;;;;31.40;43.80;;;25.04;55.19;96317.06;4959400;28;20303;-48
2023/06/23 10:19:15;;;;;;;;;;;31.90;43.50;;;25.41;49.59;96321.72;4971124;28;20018;-55
2023/06/23 10:21:44;;;;;;;;;;;32.40;42.90;;;25.45;49.44;96315.25;4972177;28;19910;-51
2023/06/23 10:24:18;;;;;;;;;;;32.60;42.30;;;25.67;48.35;96313.19;4987566;28;19917;-52
2023/06/23 10:26:46;;;;;;;;;;;32.80;42.20;;;26.25;47.75;96310.97;4971702;28;20373;-50
2023/06/23 10:29:14;;;;;;;;;;;33.10;42.10;;;26.57;47.66;96308.31;4971794;28;19916;-52
2023/06/23 10:31:41;;;;;;;;;;;33.50;41.70;;;26.94;46.55;96308.88;4986287;28;19910;-55
2023/06/23 10:34:12;;;;;;;;;;;33.90;41.40;;;27.15;46.20;96306.72;4972127;28;19910;-48
2023/06/23 10:36:48;;;;;;;;;;;34.30;41.20;;;27.39;44.83;96313.09;4975592;28;19913;-54
2023/06/23 10:39:16;;;;;;;;;;;34.60;40.30;;;27.26;44.57;96311.63;4986345;23;19949;-44
2023/06/23 10:41:47;;;;;;;;;;;34.90;39.70;;;27.56;41.74;96303.75;4975388;28;19913;-49
2023/06/23 10:44:16;;;;;;;;;;;35.10;39.50;;;27.84;42.38;96301.66;4975013;28;19914;-46
2023/06/23 10:46:42;;;;;;;;;;;35.30;39.20;;;28.24;41.33;96296.97;4976103;28;19936;-48
2023/06/23 10:49:09;;;;;;;;;;;35.60;39.30;;;28.45;41.76;96299.34;4990141;28;19979;-47
2023/06/23 10:51:37;;;;;;;;;;;36.00;39.10;;;28.31;42.58;96288.88;4965576;28;19999;-46
2023/06/23 10:54:07;;;;;;;;;;;36.10;38.30;;;28.57;39.95;96290.94;4976400;28;20051;-46
2023/06/23 10:56:44;;;;;;;;;;;36.30;39.00;;;28.43;39.37;96286.03;4972835;28;20295;-46
2023/06/23 10:59:23;;;;;;;;;;;36.50;37.40;;;28.35;40.32;96285.03;4976140;28;19971;-45
2023/06/23 11:02:01;;;;;;;;;;;36.70;36.50;;;27.89;40.53;96293.16;4975471;28;20336;-45
2023/06/23 11:04:29;;;;;;;;;;;36.60;36.10;;;27.80;40.77;96291.78;4956454;28;19910;-44
2023/06/23 11:07:04;;;;;;;;;;;36.20;36.10;;;27.51;45.03;96287.59;4971288;28;19960;-46
2023/06/23 11:09:54;;;;;;;;;;;35.70;36.50;;;27.08;45.19;96289.31;4975962;28;20000;-44
2023/06/23 11:12:43;;;;;;;;;;;35.40;36.60;;;27.60;45.42;96283.50;4976154;28;19910;-47
2023/06/23 11:15:20;;;;;;;;;;;35.40;36.50;;;27.83;44.08;96286.38;4975522;28;19984;-45
2023/06/23 11:17:57;;;;;;;;;;;35.30;36.90;;;27.66;41.89;96284.00;4991331;28;19910;-47
2023/06/23 11:20:23;;;;;;;;;;;35.10;37.10;;;27.35;41.96;96274.75;4967795;28;19917;-50
2023/06/23 11:23:24;;;;;;;;;;;35.00;37.10;;;27.45;41.44;96276.13;4968909;28;19909;-47
2023/06/23 11:25:52;;;;;;;;;;;34.90;37.00;;;27.63;42.46;96282.00;4948459;28;19954;-45
2023/06/23 11:28:36;;;;;;;;;;;35.10;37.00;;;27.74;41.61;96287.72;4969918;28;19917;-43